sensor_id;sensor_type;location;lat;lon;timestamp;temperature;humidity
4376;DHT22;2202;50.866;12.750;2023-03-13T00:00:57;7.40;91.40
4376;DHT22;2202;50.866;12.750;2023-03-13T00:03:24;7.40;91.20
4376;DHT22;2202;50.866;12.750;2023-03-13T00:05:54;7.30;91.40
4376;DHT22;2202;50.866;12.750;2023-03-13T00:08:23;7.30;91.40
4376;DHT22;2202;50.866;12.750;2023-03-13T00:10:50;7.30;91.60
4376;DHT22;2202;50.866;12.750;2023-03-13T00:13:17;7.30;91.50
4376;DHT22;2202;50.866;12.750;2023-03-13T00:15:44;7.30;91.30
4376;DHT22;2202;50.866;12.750;2023-03-13T00:18:11;7.30;91.20
4376;DHT22;2202;50.866;12.750;2023-03-13T00:20:37;7.30;91.10
4376;DHT22;2202;50.866;12.750;2023-03-13T00:23:05;7.30;91.00
4376;DHT22;2202;50.866;12.750;2023-03-13T00:25:33;7.30;91.00
4376;DHT22;2202;50.866;12.750;2023-03-13T00:28:00;7.30;91.10
4376;DHT22;2202;50.866;12.750;2023-03-13T00:30:26;7.40;91.00
4376;DHT22;2202;50.866;12.750;2023-03-13T00:32:53;7.40;90.90
4376;DHT22;2202;50.866;12.750;2023-03-13T00:35:20;7.30;90.90
4376;DHT22;2202;50.866;12.750;2023-03-13T00:37:47;7.30;91.00
4376;DHT22;2202;50.866;12.750;2023-03-13T00:40:14;7.30;91.10
4376;DHT22;2202;50.866;12.750;2023-03-13T00:42:42;7.30;91.10
4376;DHT22;2202;50.866;12.750;2023-03-13T00:45:09;7.30;91.10
4376;DHT22;2202;50.866;12.750;2023-03-13T00:47:36;7.20;91.00
4376;DHT22;2202;50.866;12.750;2023-03-13T00:50:04;7.30;91.10
4376;DHT22;2202;50.866;12.750;2023-03-13T00:52:31;7.30;91.10
4376;DHT22;2202;50.866;12.750;2023-03-13T00:54:57;7.30;91.00
4376;DHT22;2202;50.866;12.750;2023-03-13T00:57:24;7.30;91.10
4376;DHT22;2202;50.866;12.750;2023-03-13T00:59:52;7.30;91.10
4376;DHT22;2202;50.866;12.750;2023-03-13T01:02:19;7.30;91.00
4376;DHT22;2202;50.866;12.750;2023-03-13T01:04:46;7.40;91.00
4376;DHT22;2202;50.866;12.750;2023-03-13T01:07:13;7.30;91.20
4376;DHT22;2202;50.866;12.750;2023-03-13T01:09:40;7.20;91.30
4376;DHT22;2202;50.866;12.750;2023-03-13T01:12:07;7.10;91.80
4376;DHT22;2202;50.866;12.750;2023-03-13T01:14:34;7.10;92.10
4376;DHT22;2202;50.866;12.750;2023-03-13T01:17:02;7.00;92.40
4376;DHT22;2202;50.866;12.750;2023-03-13T01:19:29;6.90;92.60
4376;DHT22;2202;50.866;12.750;2023-03-13T01:21:56;6.90;92.60
4376;DHT22;2202;50.866;12.750;2023-03-13T01:24:23;6.90;92.60
4376;DHT22;2202;50.866;12.750;2023-03-13T01:26:50;6.90;92.60
4376;DHT22;2202;50.866;12.750;2023-03-13T01:29:16;6.90;92.80
4376;DHT22;2202;50.866;12.750;2023-03-13T01:31:43;6.90;92.90
4376;DHT22;2202;50.866;12.750;2023-03-13T01:34:12;6.90;92.90
4376;DHT22;2202;50.866;12.750;2023-03-13T01:36:38;6.90;93.00
4376;DHT22;2202;50.866;12.750;2023-03-13T01:39:06;6.90;93.00
4376;DHT22;2202;50.866;12.750;2023-03-13T01:41:33;6.90;92.90
4376;DHT22;2202;50.866;12.750;2023-03-13T01:44:00;6.90;92.70
4376;DHT22;2202;50.866;12.750;2023-03-13T01:46:27;6.90;92.70
4376;DHT22;2202;50.866;12.750;2023-03-13T01:48:58;6.90;92.60
4376;DHT22;2202;50.866;12.750;2023-03-13T01:51:28;6.90;92.70
4376;DHT22;2202;50.866;12.750;2023-03-13T01:54:00;6.90;92.60
4376;DHT22;2202;50.866;12.750;2023-03-13T01:56:33;6.90;92.50
4376;DHT22;2202;50.866;12.750;2023-03-13T01:59:02;6.80;92.80
4376;DHT22;2202;50.866;12.750;2023-03-13T02:01:30;6.80;93.00
4376;DHT22;2202;50.866;12.750;2023-03-13T02:03:58;6.80;93.00
4376;DHT22;2202;50.866;12.750;2023-03-13T02:06:28;6.80;93.10
4376;DHT22;2202;50.866;12.750;2023-03-13T02:09:00;6.80;93.10
4376;DHT22;2202;50.866;12.750;2023-03-13T02:11:37;6.70;93.10
4376;DHT22;2202;50.866;12.750;2023-03-13T02:14:06;6.80;93.10
4376;DHT22;2202;50.866;12.750;2023-03-13T02:16:34;6.70;93.20
4376;DHT22;2202;50.866;12.750;2023-03-13T02:19:06;6.80;93.20
4376;DHT22;2202;50.866;12.750;2023-03-13T02:21:44;6.70;93.20
4376;DHT22;2202;50.866;12.750;2023-03-13T02:24:23;6.80;93.10
4376;DHT22;2202;50.866;12.750;2023-03-13T02:26:54;6.80;93.00
4376;DHT22;2202;50.866;12.750;2023-03-13T02:29:22;6.80;93.00
4376;DHT22;2202;50.866;12.750;2023-03-13T02:31:50;6.80;93.00
4376;DHT22;2202;50.866;12.750;2023-03-13T02:34:21;6.80;92.90
4376;DHT22;2202;50.866;12.750;2023-03-13T02:36:50;6.90;92.60
4376;DHT22;2202;50.866;12.750;2023-03-13T02:39:19;6.90;92.50
4376;DHT22;2202;50.866;12.750;2023-03-13T02:41:48;6.90;92.40
4376;DHT22;2202;50.866;12.750;2023-03-13T02:44:17;7.00;92.30
4376;DHT22;2202;50.866;12.750;2023-03-13T02:46:45;7.00;92.30
4376;DHT22;2202;50.866;12.750;2023-03-13T02:49:21;7.00;92.20
4376;DHT22;2202;50.866;12.750;2023-03-13T02:51:48;7.00;92.20
4376;DHT22;2202;50.866;12.750;2023-03-13T02:54:18;7.10;92.10
4376;DHT22;2202;50.866;12.750;2023-03-13T02:56:47;7.10;92.00
4376;DHT22;2202;50.866;12.750;2023-03-13T02:59:14;7.10;92.00
4376;DHT22;2202;50.866;12.750;2023-03-13T03:01:42;7.10;91.80
4376;DHT22;2202;50.866;12.750;2023-03-13T03:04:10;7.20;92.00
4376;DHT22;2202;50.866;12.750;2023-03-13T03:06:37;7.20;91.70
4376;DHT22;2202;50.866;12.750;2023-03-13T03:09:04;7.20;91.60
4376;DHT22;2202;50.866;12.750;2023-03-13T03:11:31;7.20;91.70
4376;DHT22;2202;50.866;12.750;2023-03-13T03:13:58;7.20;91.60
4376;DHT22;2202;50.866;12.750;2023-03-13T03:16:25;7.20;91.60
4376;DHT22;2202;50.866;12.750;2023-03-13T03:18:53;7.30;91.40
4376;DHT22;2202;50.866;12.750;2023-03-13T03:21:20;7.30;91.50
4376;DHT22;2202;50.866;12.750;2023-03-13T03:23:48;7.20;91.60
4376;DHT22;2202;50.866;12.750;2023-03-13T03:26:16;7.30;91.70
4376;DHT22;2202;50.866;12.750;2023-03-13T03:28:43;7.20;91.80
4376;DHT22;2202;50.866;12.750;2023-03-13T03:31:11;7.20;92.10
4376;DHT22;2202;50.866;12.750;2023-03-13T03:33:39;7.20;92.20
4376;DHT22;2202;50.866;12.750;2023-03-13T03:36:09;7.20;92.30
4376;DHT22;2202;50.866;12.750;2023-03-13T03:38:36;7.30;92.20
4376;DHT22;2202;50.866;12.750;2023-03-13T03:41:04;7.40;91.90
4376;DHT22;2202;50.866;12.750;2023-03-13T03:43:31;7.40;91.90
4376;DHT22;2202;50.866;12.750;2023-03-13T03:45:58;7.40;91.80
4376;DHT22;2202;50.866;12.750;2023-03-13T03:48:25;7.50;91.60
4376;DHT22;2202;50.866;12.750;2023-03-13T03:50:52;7.60;91.50
4376;DHT22;2202;50.866;12.750;2023-03-13T03:53:20;7.60;91.40
4376;DHT22;2202;50.866;12.750;2023-03-13T03:55:47;7.60;91.30
4376;DHT22;2202;50.866;12.750;2023-03-13T03:58:14;7.70;91.30
4376;DHT22;2202;50.866;12.750;2023-03-13T04:00:42;7.70;91.30
4376;DHT22;2202;50.866;12.750;2023-03-13T04:03:10;7.70;91.00
4376;DHT22;2202;50.866;12.750;2023-03-13T04:05:37;7.80;90.80
4376;DHT22;2202;50.866;12.750;2023-03-13T04:08:04;7.80;90.90
4376;DHT22;2202;50.866;12.750;2023-03-13T04:10:32;7.70;90.90
4376;DHT22;2202;50.866;12.750;2023-03-13T04:12:59;7.80;90.90
4376;DHT22;2202;50.866;12.750;2023-03-13T04:15:26;7.80;90.70
4376;DHT22;2202;50.866;12.750;2023-03-13T04:17:53;7.90;90.50
4376;DHT22;2202;50.866;12.750;2023-03-13T04:20:20;7.80;90.50
4376;DHT22;2202;50.866;12.750;2023-03-13T04:22:46;7.90;90.50
4376;DHT22;2202;50.866;12.750;2023-03-13T04:25:13;7.80;90.50
4376;DHT22;2202;50.866;12.750;2023-03-13T04:27:42;7.80;90.60
4376;DHT22;2202;50.866;12.750;2023-03-13T04:30:09;7.80;90.50
4376;DHT22;2202;50.866;12.750;2023-03-13T04:32:36;7.90;90.30
4376;DHT22;2202;50.866;12.750;2023-03-13T04:35:04;7.90;90.30
4376;DHT22;2202;50.866;12.750;2023-03-13T04:37:30;8.00;90.00
4376;DHT22;2202;50.866;12.750;2023-03-13T04:39:57;8.00;90.10
4376;DHT22;2202;50.866;12.750;2023-03-13T04:42:24;8.00;90.20
4376;DHT22;2202;50.866;12.750;2023-03-13T04:44:53;8.00;89.80
4376;DHT22;2202;50.866;12.750;2023-03-13T04:47:19;8.10;89.20
4376;DHT22;2202;50.866;12.750;2023-03-13T04:49:46;8.00;89.40
4376;DHT22;2202;50.866;12.750;2023-03-13T04:52:13;8.00;89.40
4376;DHT22;2202;50.866;12.750;2023-03-13T04:54:40;8.00;89.40
4376;DHT22;2202;50.866;12.750;2023-03-13T04:57:07;8.00;89.20
4376;DHT22;2202;50.866;12.750;2023-03-13T04:59:34;8.10;88.80
4376;DHT22;2202;50.866;12.750;2023-03-13T05:02:02;8.10;88.40
4376;DHT22;2202;50.866;12.750;2023-03-13T05:04:29;8.20;88.20
4376;DHT22;2202;50.866;12.750;2023-03-13T05:06:55;8.20;88.00
4376;DHT22;2202;50.866;12.750;2023-03-13T05:09:22;8.20;87.80
4376;DHT22;2202;50.866;12.750;2023-03-13T05:11:49;8.20;87.60
4376;DHT22;2202;50.866;12.750;2023-03-13T05:14:16;8.30;87.20
4376;DHT22;2202;50.866;12.750;2023-03-13T05:16:44;8.40;86.80
4376;DHT22;2202;50.866;12.750;2023-03-13T05:19:12;8.40;86.60
4376;DHT22;2202;50.866;12.750;2023-03-13T05:21:39;8.40;86.40
4376;DHT22;2202;50.866;12.750;2023-03-13T05:24:06;8.40;87.20
4376;DHT22;2202;50.866;12.750;2023-03-13T05:26:33;8.40;86.80
4376;DHT22;2202;50.866;12.750;2023-03-13T05:28:59;8.50;86.40
4376;DHT22;2202;50.866;12.750;2023-03-13T05:31:26;8.40;87.00
4376;DHT22;2202;50.866;12.750;2023-03-13T05:33:53;8.40;87.00
4376;DHT22;2202;50.866;12.750;2023-03-13T05:36:21;8.40;87.40
4376;DHT22;2202;50.866;12.750;2023-03-13T05:38:48;8.50;86.80
4376;DHT22;2202;50.866;12.750;2023-03-13T05:41:15;8.50;86.80
4376;DHT22;2202;50.866;12.750;2023-03-13T05:43:42;8.50;86.80
4376;DHT22;2202;50.866;12.750;2023-03-13T05:46:09;8.50;87.20
4376;DHT22;2202;50.866;12.750;2023-03-13T05:48:35;8.50;87.20
4376;DHT22;2202;50.866;12.750;2023-03-13T05:51:02;8.50;87.20
4376;DHT22;2202;50.866;12.750;2023-03-13T05:53:31;8.50;87.40
4376;DHT22;2202;50.866;12.750;2023-03-13T05:55:58;8.50;87.40
4376;DHT22;2202;50.866;12.750;2023-03-13T05:58:24;8.50;87.80
4376;DHT22;2202;50.866;12.750;2023-03-13T06:00:51;8.60;87.60
4376;DHT22;2202;50.866;12.750;2023-03-13T06:03:18;8.70;87.40
4376;DHT22;2202;50.866;12.750;2023-03-13T06:05:45;8.60;87.40
4376;DHT22;2202;50.866;12.750;2023-03-13T06:08:12;8.70;87.40
4376;DHT22;2202;50.866;12.750;2023-03-13T06:10:40;8.70;87.40
4376;DHT22;2202;50.866;12.750;2023-03-13T06:13:07;8.70;87.20
4376;DHT22;2202;50.866;12.750;2023-03-13T06:15:33;8.70;87.40
4376;DHT22;2202;50.866;12.750;2023-03-13T06:18:00;8.70;88.60
4376;DHT22;2202;50.866;12.750;2023-03-13T06:20:27;8.70;89.60
4376;DHT22;2202;50.866;12.750;2023-03-13T06:22:54;8.60;90.50
4376;DHT22;2202;50.866;12.750;2023-03-13T06:25:21;8.60;91.00
4376;DHT22;2202;50.866;12.750;2023-03-13T06:30:28;8.60;91.80
4376;DHT22;2202;50.866;12.750;2023-03-13T06:32:55;8.50;92.20
4376;DHT22;2202;50.866;12.750;2023-03-13T06:35:22;8.60;92.40
4376;DHT22;2202;50.866;12.750;2023-03-13T06:37:48;8.60;92.40
4376;DHT22;2202;50.866;12.750;2023-03-13T06:40:15;8.60;92.00
4376;DHT22;2202;50.866;12.750;2023-03-13T06:42:42;8.60;92.30
4376;DHT22;2202;50.866;12.750;2023-03-13T06:45:10;8.70;92.60
4376;DHT22;2202;50.866;12.750;2023-03-13T06:47:38;8.70;92.50
4376;DHT22;2202;50.866;12.750;2023-03-13T06:50:05;8.70;92.40
4376;DHT22;2202;50.866;12.750;2023-03-13T06:52:32;8.70;92.20
4376;DHT22;2202;50.866;12.750;2023-03-13T06:54:59;8.80;91.80
4376;DHT22;2202;50.866;12.750;2023-03-13T06:57:26;8.90;91.80
4376;DHT22;2202;50.866;12.750;2023-03-13T06:59:53;8.90;91.60
4376;DHT22;2202;50.866;12.750;2023-03-13T07:02:20;8.90;91.40
4376;DHT22;2202;50.866;12.750;2023-03-13T07:04:48;8.90;91.40
4376;DHT22;2202;50.866;12.750;2023-03-13T07:07:15;8.90;91.50
4376;DHT22;2202;50.866;12.750;2023-03-13T07:09:42;9.00;90.70
4376;DHT22;2202;50.866;12.750;2023-03-13T07:12:09;9.00;91.00
4376;DHT22;2202;50.866;12.750;2023-03-13T07:14:36;9.10;90.70
4376;DHT22;2202;50.866;12.750;2023-03-13T07:17:03;9.10;90.90
4376;DHT22;2202;50.866;12.750;2023-03-13T07:19:29;9.10;90.70
4376;DHT22;2202;50.866;12.750;2023-03-13T07:21:58;9.10;90.80
4376;DHT22;2202;50.866;12.750;2023-03-13T07:24:25;9.10;90.80
4376;DHT22;2202;50.866;12.750;2023-03-13T07:26:51;9.10;90.70
4376;DHT22;2202;50.866;12.750;2023-03-13T07:29:18;9.30;90.80
4376;DHT22;2202;50.866;12.750;2023-03-13T07:31:45;9.30;91.00
4376;DHT22;2202;50.866;12.750;2023-03-13T07:34:12;9.20;91.30
4376;DHT22;2202;50.866;12.750;2023-03-13T07:36:39;9.30;91.00
4376;DHT22;2202;50.866;12.750;2023-03-13T07:39:08;9.30;91.30
4376;DHT22;2202;50.866;12.750;2023-03-13T07:41:35;9.20;91.30
4376;DHT22;2202;50.866;12.750;2023-03-13T07:44:02;9.30;91.40
4376;DHT22;2202;50.866;12.750;2023-03-13T07:46:28;9.40;91.00
4376;DHT22;2202;50.866;12.750;2023-03-13T07:48:55;9.50;91.10
4376;DHT22;2202;50.866;12.750;2023-03-13T07:51:24;9.60;91.30
4376;DHT22;2202;50.866;12.750;2023-03-13T07:53:52;9.60;91.20
4376;DHT22;2202;50.866;12.750;2023-03-13T07:56:21;9.80;90.60
4376;DHT22;2202;50.866;12.750;2023-03-13T07:58:49;9.80;90.50
4376;DHT22;2202;50.866;12.750;2023-03-13T08:01:18;9.90;90.20
4376;DHT22;2202;50.866;12.750;2023-03-13T08:03:45;9.90;90.10
4376;DHT22;2202;50.866;12.750;2023-03-13T08:06:17;9.80;90.10
4376;DHT22;2202;50.866;12.750;2023-03-13T08:08:45;9.80;90.30
4376;DHT22;2202;50.866;12.750;2023-03-13T08:11:13;9.80;90.00
4376;DHT22;2202;50.866;12.750;2023-03-13T08:13:42;9.80;90.20
4376;DHT22;2202;50.866;12.750;2023-03-13T08:16:11;9.90;90.20
4376;DHT22;2202;50.866;12.750;2023-03-13T08:18:40;9.90;90.30
4376;DHT22;2202;50.866;12.750;2023-03-13T08:21:09;9.90;90.60
4376;DHT22;2202;50.866;12.750;2023-03-13T08:23:36;9.90;90.80
4376;DHT22;2202;50.866;12.750;2023-03-13T08:26:05;10.00;90.80
4376;DHT22;2202;50.866;12.750;2023-03-13T08:28:32;10.00;90.80
4376;DHT22;2202;50.866;12.750;2023-03-13T08:31:07;9.90;91.00
4376;DHT22;2202;50.866;12.750;2023-03-13T08:33:34;9.90;91.10
4376;DHT22;2202;50.866;12.750;2023-03-13T08:36:09;10.00;91.10
4376;DHT22;2202;50.866;12.750;2023-03-13T08:38:36;9.90;91.50
4376;DHT22;2202;50.866;12.750;2023-03-13T08:41:03;9.90;91.20
4376;DHT22;2202;50.866;12.750;2023-03-13T08:43:30;9.90;91.40
4376;DHT22;2202;50.866;12.750;2023-03-13T08:45:57;9.90;91.50
4376;DHT22;2202;50.866;12.750;2023-03-13T08:48:25;9.80;91.90
4376;DHT22;2202;50.866;12.750;2023-03-13T08:51:02;9.80;91.80
4376;DHT22;2202;50.866;12.750;2023-03-13T08:53:30;9.90;91.80
4376;DHT22;2202;50.866;12.750;2023-03-13T08:55:57;9.90;91.90
4376;DHT22;2202;50.866;12.750;2023-03-13T08:58:24;10.00;91.90
4376;DHT22;2202;50.866;12.750;2023-03-13T09:00:51;10.00;91.90
4376;DHT22;2202;50.866;12.750;2023-03-13T09:03:18;10.00;91.80
4376;DHT22;2202;50.866;12.750;2023-03-13T09:05:46;10.00;91.90
4376;DHT22;2202;50.866;12.750;2023-03-13T09:08:13;10.00;92.20
4376;DHT22;2202;50.866;12.750;2023-03-13T09:10:40;10.10;92.00
4376;DHT22;2202;50.866;12.750;2023-03-13T09:13:07;10.10;91.90
4376;DHT22;2202;50.866;12.750;2023-03-13T09:15:34;10.10;92.00
4376;DHT22;2202;50.866;12.750;2023-03-13T09:18:01;10.20;92.00
4376;DHT22;2202;50.866;12.750;2023-03-13T09:20:28;10.20;92.20
4376;DHT22;2202;50.866;12.750;2023-03-13T09:22:56;10.20;92.20
4376;DHT22;2202;50.866;12.750;2023-03-13T09:25:23;10.20;92.40
4376;DHT22;2202;50.866;12.750;2023-03-13T09:27:49;10.20;92.70
4376;DHT22;2202;50.866;12.750;2023-03-13T09:30:17;10.10;92.80
4376;DHT22;2202;50.866;12.750;2023-03-13T09:32:44;10.20;92.90
4376;DHT22;2202;50.866;12.750;2023-03-13T09:35:10;10.30;92.80
4376;DHT22;2202;50.866;12.750;2023-03-13T09:37:37;10.30;92.90
4376;DHT22;2202;50.866;12.750;2023-03-13T09:40:09;10.40;92.80
4376;DHT22;2202;50.866;12.750;2023-03-13T09:42:44;10.60;92.50
4376;DHT22;2202;50.866;12.750;2023-03-13T09:45:14;10.70;92.40
4376;DHT22;2202;50.866;12.750;2023-03-13T09:47:45;10.80;91.80
4376;DHT22;2202;50.866;12.750;2023-03-13T09:50:15;10.80;91.60
4376;DHT22;2202;50.866;12.750;2023-03-13T09:52:44;10.90;91.70
4376;DHT22;2202;50.866;12.750;2023-03-13T09:55:19;11.00;91.50
4376;DHT22;2202;50.866;12.750;2023-03-13T09:57:49;11.00;91.20
4376;DHT22;2202;50.866;12.750;2023-03-13T10:00:22;11.10;91.10
4376;DHT22;2202;50.866;12.750;2023-03-13T10:02:57;11.20;90.90
4376;DHT22;2202;50.866;12.750;2023-03-13T10:05:27;11.30;90.50
4376;DHT22;2202;50.866;12.750;2023-03-13T10:07:56;11.30;90.70
4376;DHT22;2202;50.866;12.750;2023-03-13T10:10:33;11.30;90.50
4376;DHT22;2202;50.866;12.750;2023-03-13T10:13:11;11.30;90.20
4376;DHT22;2202;50.866;12.750;2023-03-13T10:15:44;11.20;90.70
4376;DHT22;2202;50.866;12.750;2023-03-13T10:18:17;11.30;90.60
4376;DHT22;2202;50.866;12.750;2023-03-13T10:20:47;11.40;90.80
4376;DHT22;2202;50.866;12.750;2023-03-13T10:23:19;11.40;90.40
4376;DHT22;2202;50.866;12.750;2023-03-13T10:25:48;11.30;90.50
4376;DHT22;2202;50.866;12.750;2023-03-13T10:28:16;11.30;90.40
4376;DHT22;2202;50.866;12.750;2023-03-13T10:30:47;11.30;90.60
4376;DHT22;2202;50.866;12.750;2023-03-13T10:33:24;11.30;90.80
4376;DHT22;2202;50.866;12.750;2023-03-13T10:36:03;11.30;90.80
4376;DHT22;2202;50.866;12.750;2023-03-13T10:38:33;11.20;91.00
4376;DHT22;2202;50.866;12.750;2023-03-13T10:41:06;11.30;91.00
4376;DHT22;2202;50.866;12.750;2023-03-13T10:43:49;11.30;90.90
4376;DHT22;2202;50.866;12.750;2023-03-13T10:46:24;11.50;91.20
4376;DHT22;2202;50.866;12.750;2023-03-13T10:48:53;11.60;90.20
4376;DHT22;2202;50.866;12.750;2023-03-13T10:51:22;11.70;90.10
4376;DHT22;2202;50.866;12.750;2023-03-13T10:53:50;11.70;90.20
4376;DHT22;2202;50.866;12.750;2023-03-13T10:56:24;11.60;90.40
4376;DHT22;2202;50.866;12.750;2023-03-13T10:58:54;11.60;90.40
4376;DHT22;2202;50.866;12.750;2023-03-13T11:01:22;11.70;90.10
4376;DHT22;2202;50.866;12.750;2023-03-13T11:03:51;11.80;90.00
4376;DHT22;2202;50.866;12.750;2023-03-13T11:06:25;11.70;90.10
4376;DHT22;2202;50.866;12.750;2023-03-13T11:09:06;11.80;90.00
4376;DHT22;2202;50.866;12.750;2023-03-13T11:11:47;11.70;90.00
4376;DHT22;2202;50.866;12.750;2023-03-13T11:14:17;11.70;90.00
4376;DHT22;2202;50.866;12.750;2023-03-13T11:16:46;11.60;90.40
4376;DHT22;2202;50.866;12.750;2023-03-13T11:19:28;11.60;90.40
4376;DHT22;2202;50.866;12.750;2023-03-13T11:22:19;11.60;90.30
4376;DHT22;2202;50.866;12.750;2023-03-13T11:24:56;11.60;90.50
4376;DHT22;2202;50.866;12.750;2023-03-13T11:27:32;11.60;90.60
4376;DHT22;2202;50.866;12.750;2023-03-13T11:30:10;11.50;91.00
4376;DHT22;2202;50.866;12.750;2023-03-13T11:32:42;11.50;90.90
4376;DHT22;2202;50.866;12.750;2023-03-13T11:35:24;11.60;90.80
4376;DHT22;2202;50.866;12.750;2023-03-13T11:37:55;11.60;90.70
4376;DHT22;2202;50.866;12.750;2023-03-13T11:40:26;11.60;91.00
4376;DHT22;2202;50.866;12.750;2023-03-13T11:43:24;11.70;90.60
4376;DHT22;2202;50.866;12.750;2023-03-13T11:49:00;11.90;90.20
4376;DHT22;2202;50.866;12.750;2023-03-13T11:51:37;12.00;90.00
4376;DHT22;2202;50.866;12.750;2023-03-13T11:54:23;12.10;89.80
4376;DHT22;2202;50.866;12.750;2023-03-13T11:56:55;12.30;89.40
4376;DHT22;2202;50.866;12.750;2023-03-13T11:59:34;12.60;89.40
4376;DHT22;2202;50.866;12.750;2023-03-13T12:02:13;12.80;88.40
4376;DHT22;2202;50.866;12.750;2023-03-13T12:04:43;13.00;86.60
4376;DHT22;2202;50.866;12.750;2023-03-13T12:07:19;13.10;84.80
4376;DHT22;2202;50.866;12.750;2023-03-13T12:09:50;13.30;84.00
4376;DHT22;2202;50.866;12.750;2023-03-13T12:12:25;13.30;84.40
4376;DHT22;2202;50.866;12.750;2023-03-13T12:14:58;13.50;82.20
4376;DHT22;2202;50.866;12.750;2023-03-13T12:17:32;13.50;82.40
4376;DHT22;2202;50.866;12.750;2023-03-13T12:20:05;13.60;81.40
4376;DHT22;2202;50.866;12.750;2023-03-13T12:22:37;13.60;82.00
4376;DHT22;2202;50.866;12.750;2023-03-13T12:25:12;13.50;81.40
4376;DHT22;2202;50.866;12.750;2023-03-13T12:27:43;13.50;80.80
4376;DHT22;2202;50.866;12.750;2023-03-13T12:30:21;13.40;82.40
4376;DHT22;2202;50.866;12.750;2023-03-13T12:32:55;13.40;82.40
4376;DHT22;2202;50.866;12.750;2023-03-13T12:35:26;13.60;82.00
4376;DHT22;2202;50.866;12.750;2023-03-13T12:37:57;13.80;81.40
4376;DHT22;2202;50.866;12.750;2023-03-13T12:40:30;14.10;78.60
4376;DHT22;2202;50.866;12.750;2023-03-13T12:43:03;14.20;78.80
4376;DHT22;2202;50.866;12.750;2023-03-13T12:45:36;14.20;78.60
4376;DHT22;2202;50.866;12.750;2023-03-13T12:48:24;14.10;77.60
4376;DHT22;2202;50.866;12.750;2023-03-13T12:51:09;14.00;78.40
4376;DHT22;2202;50.866;12.750;2023-03-13T12:54:04;14.00;79.60
4376;DHT22;2202;50.866;12.750;2023-03-13T12:56:45;14.10;78.40
4376;DHT22;2202;50.866;12.750;2023-03-13T12:59:15;14.00;78.00
4376;DHT22;2202;50.866;12.750;2023-03-13T13:01:47;14.10;79.00
4376;DHT22;2202;50.866;12.750;2023-03-13T13:04:17;14.20;77.80
4376;DHT22;2202;50.866;12.750;2023-03-13T13:06:54;14.20;78.20
4376;DHT22;2202;50.866;12.750;2023-03-13T13:09:23;14.10;78.00
4376;DHT22;2202;50.866;12.750;2023-03-13T13:11:52;14.10;78.20
4376;DHT22;2202;50.866;12.750;2023-03-13T13:17:55;14.00;79.80
4376;DHT22;2202;50.866;12.750;2023-03-13T13:20:39;14.00;77.80
4376;DHT22;2202;50.866;12.750;2023-03-13T13:23:27;14.00;79.40
4376;DHT22;2202;50.866;12.750;2023-03-13T13:32:43;14.30;76.80
4376;DHT22;2202;50.866;12.750;2023-03-13T13:35:28;14.10;78.80
4376;DHT22;2202;50.866;12.750;2023-03-13T13:38:29;14.10;78.60
4376;DHT22;2202;50.866;12.750;2023-03-13T13:41:03;14.00;79.00
4376;DHT22;2202;50.866;12.750;2023-03-13T13:43:32;14.00;79.20
4376;DHT22;2202;50.866;12.750;2023-03-13T13:46:02;14.00;78.80
4376;DHT22;2202;50.866;12.750;2023-03-13T13:48:33;14.10;79.20
4376;DHT22;2202;50.866;12.750;2023-03-13T13:51:34;14.10;78.20
4376;DHT22;2202;50.866;12.750;2023-03-13T13:54:04;14.10;78.60
4376;DHT22;2202;50.866;12.750;2023-03-13T13:56:41;14.10;79.00
4376;DHT22;2202;50.866;12.750;2023-03-13T13:59:24;14.10;78.60
4376;DHT22;2202;50.866;12.750;2023-03-13T14:07:45;14.00;79.20
4376;DHT22;2202;50.866;12.750;2023-03-13T14:10:34;14.00;79.40
4376;DHT22;2202;50.866;12.750;2023-03-13T14:13:09;14.00;78.80
4376;DHT22;2202;50.866;12.750;2023-03-13T14:15:40;14.10;79.00
4376;DHT22;2202;50.866;12.750;2023-03-13T14:18:10;14.10;79.40
4376;DHT22;2202;50.866;12.750;2023-03-13T14:20:39;14.00;79.20
4376;DHT22;2202;50.866;12.750;2023-03-13T14:23:09;14.10;79.00
4376;DHT22;2202;50.866;12.750;2023-03-13T14:25:42;14.00;80.20
4376;DHT22;2202;50.866;12.750;2023-03-13T14:28:20;14.10;79.80
4376;DHT22;2202;50.866;12.750;2023-03-13T14:30:49;14.10;79.00
4376;DHT22;2202;50.866;12.750;2023-03-13T14:33:17;13.90;80.00
4376;DHT22;2202;50.866;12.750;2023-03-13T14:35:44;13.80;80.80
4376;DHT22;2202;50.866;12.750;2023-03-13T14:38:17;14.00;80.00
4376;DHT22;2202;50.866;12.750;2023-03-13T14:40:45;13.80;80.60
4376;DHT22;2202;50.866;12.750;2023-03-13T14:43:20;13.80;81.60
4376;DHT22;2202;50.866;12.750;2023-03-13T14:45:49;13.80;80.40
4376;DHT22;2202;50.866;12.750;2023-03-13T14:48:20;13.90;80.00
4376;DHT22;2202;50.866;12.750;2023-03-13T14:50:48;13.80;80.00
4376;DHT22;2202;50.866;12.750;2023-03-13T14:53:19;13.80;80.00
4376;DHT22;2202;50.866;12.750;2023-03-13T14:55:46;13.80;80.00
4376;DHT22;2202;50.866;12.750;2023-03-13T14:58:26;13.80;80.80
4376;DHT22;2202;50.866;12.750;2023-03-13T15:00:54;13.80;81.00
4376;DHT22;2202;50.866;12.750;2023-03-13T15:03:28;14.00;80.40
4376;DHT22;2202;50.866;12.750;2023-03-13T15:06:16;14.10;79.60
4376;DHT22;2202;50.866;12.750;2023-03-13T15:08:46;14.20;77.80
4376;DHT22;2202;50.866;12.750;2023-03-13T15:11:19;14.40;78.00
4376;DHT22;2202;50.866;12.750;2023-03-13T15:13:47;14.30;78.20
4376;DHT22;2202;50.866;12.750;2023-03-13T15:16:15;14.20;77.80
4376;DHT22;2202;50.866;12.750;2023-03-13T15:18:44;14.20;78.20
4376;DHT22;2202;50.866;12.750;2023-03-13T15:21:23;13.90;78.80
4376;DHT22;2202;50.866;12.750;2023-03-13T15:23:53;13.80;80.20
4376;DHT22;2202;50.866;12.750;2023-03-13T15:26:21;13.80;79.00
4376;DHT22;2202;50.866;12.750;2023-03-13T15:28:49;13.80;79.80
4376;DHT22;2202;50.866;12.750;2023-03-13T15:31:16;13.90;80.00
4376;DHT22;2202;50.866;12.750;2023-03-13T15:33:43;13.90;79.00
4376;DHT22;2202;50.866;12.750;2023-03-13T15:36:10;13.90;79.80
4376;DHT22;2202;50.866;12.750;2023-03-13T15:38:37;13.80;79.20
4376;DHT22;2202;50.866;12.750;2023-03-13T15:41:06;13.70;79.20
4376;DHT22;2202;50.866;12.750;2023-03-13T15:43:34;13.70;80.20
4376;DHT22;2202;50.866;12.750;2023-03-13T15:46:02;13.60;80.40
4376;DHT22;2202;50.866;12.750;2023-03-13T15:48:28;13.60;80.40
4376;DHT22;2202;50.866;12.750;2023-03-13T15:50:58;13.50;81.00
4376;DHT22;2202;50.866;12.750;2023-03-13T15:53:26;13.50;80.80
4376;DHT22;2202;50.866;12.750;2023-03-13T15:55:55;13.50;81.60
4376;DHT22;2202;50.866;12.750;2023-03-13T15:58:23;13.40;81.40
4376;DHT22;2202;50.866;12.750;2023-03-13T16:00:51;13.50;82.00
4376;DHT22;2202;50.866;12.750;2023-03-13T16:03:19;13.60;81.60
4376;DHT22;2202;50.866;12.750;2023-03-13T16:05:47;13.60;80.20
4376;DHT22;2202;50.866;12.750;2023-03-13T16:08:15;13.70;79.80
4376;DHT22;2202;50.866;12.750;2023-03-13T16:10:43;13.80;79.80
4376;DHT22;2202;50.866;12.750;2023-03-13T16:13:10;13.90;78.80
4376;DHT22;2202;50.866;12.750;2023-03-13T16:15:38;14.10;78.00
4376;DHT22;2202;50.866;12.750;2023-03-13T16:18:06;14.10;77.80
4376;DHT22;2202;50.866;12.750;2023-03-13T16:20:33;14.10;77.60
4376;DHT22;2202;50.866;12.750;2023-03-13T16:23:00;14.10;77.40
4376;DHT22;2202;50.866;12.750;2023-03-13T16:25:29;14.20;77.20
4376;DHT22;2202;50.866;12.750;2023-03-13T16:27:57;14.20;77.00
4376;DHT22;2202;50.866;12.750;2023-03-13T16:30:26;14.20;77.00
4376;DHT22;2202;50.866;12.750;2023-03-13T16:32:55;14.20;76.80